Time;durP1;ratioP1;P1;durP2;ratioP2;P2;SDS_P1;SDS_P2;PMS_P1;PMS_P2;Temp;Humidity;BMP_temperature;BMP_pressure;BME280_temperature;BME280_humidity;BME280_pressure;Samples;Min_cycle;Max_cycle;Signal;HPM_P1;HPM_P2
2022/06/26 00:01:42;;;;;;;11.05;2.38;;;23.10;87.00;;;;;;5127353;28;20027;-69
2022/06/26 00:04:46;;;;;;;7.18;2.28;;;22.60;88.10;;;;;;5128177;28;20042;-69
2022/06/26 00:07:50;;;;;;;10.30;2.67;;;22.30;88.50;;;;;;5126284;28;20031;-69
2022/06/26 00:10:54;;;;;;;10.30;2.30;;;22.10;89.20;;;;;;5127969;28;20066;-69
2022/06/26 00:13:58;;;;;;;5.70;2.10;;;21.90;90.00;;;;;;5126428;28;20409;-69
2022/06/26 00:17:02;;;;;;;7.55;2.30;;;21.80;90.20;;;;;;5126522;28;20032;-69
2022/06/26 00:20:06;;;;;;;8.45;2.08;;;21.70;90.30;;;;;;5127523;28;20040;-69
2022/06/26 00:23:10;;;;;;;6.97;2.00;;;21.50;90.80;;;;;;5127649;28;20493;-68
2022/06/26 00:26:14;;;;;;;8.93;2.92;;;21.40;91.10;;;;;;5127238;28;20378;-69
2022/06/26 00:29:18;;;;;;;5.07;2.30;;;21.40;91.40;;;;;;5127419;28;20039;-69
2022/06/26 00:32:23;;;;;;;6.05;2.22;;;21.40;91.50;;;;;;5127688;28;20039;-69
2022/06/26 00:35:27;;;;;;;6.90;2.38;;;21.30;91.40;;;;;;5126687;28;20040;-69
2022/06/26 00:38:31;;;;;;;7.55;2.25;;;21.30;91.60;;;;;;5127270;28;20436;-69
2022/06/26 00:41:35;;;;;;;7.53;2.00;;;21.20;91.90;;;;;;5126332;28;20464;-69
2022/06/26 00:44:39;;;;;;;8.38;2.40;;;21.10;92.30;;;;;;5126327;28;20035;-69
2022/06/26 00:47:43;;;;;;;8.60;2.83;;;21.00;92.70;;;;;;5126707;28;20370;-69
2022/06/26 00:50:47;;;;;;;16.00;3.17;;;20.90;93.40;;;;;;5127490;28;20490;-69
2022/06/26 00:53:53;;;;;;;17.55;2.70;;;20.90;93.60;;;;;;5126953;28;20042;-68
2022/06/26 00:56:58;;;;;;;9.68;2.60;;;20.90;93.90;;;;;;5126042;28;20072;-69
2022/06/26 01:00:05;;;;;;;7.13;2.50;;;20.90;94.40;;;;;;5113503;28;20043;-69
2022/06/26 01:03:09;;;;;;;11.40;2.80;;;20.90;94.60;;;;;;5113519;28;20036;-69
2022/06/26 01:06:13;;;;;;;5.85;2.72;;;20.90;94.80;;;;;;5113354;28;20047;-69
2022/06/26 01:09:17;;;;;;;24.95;3.67;;;20.90;95.30;;;;;;5112916;28;20039;-69
2022/06/26 01:12:22;;;;;;;8.15;3.05;;;20.80;95.60;;;;;;5113419;28;20500;-69
2022/06/26 01:15:27;;;;;;;7.35;2.75;;;20.90;96.10;;;;;;5112035;28;20481;-68
2022/06/26 01:18:31;;;;;;;9.18;2.80;;;20.80;96.80;;;;;;5112173;28;20401;-68
2022/06/26 01:21:37;;;;;;;8.60;2.90;;;20.80;96.90;;;;;;5112294;28;20035;-69
2022/06/26 01:24:42;;;;;;;7.97;2.58;;;20.80;97.10;;;;;;5100457;28;20048;-68
2022/06/26 01:27:46;;;;;;;11.15;2.80;;;20.80;97.40;;;;;;5111364;28;20039;-69
2022/06/26 01:30:53;;;;;;;10.25;3.17;;;20.70;97.60;;;;;;5089200;28;20046;-68
2022/06/26 01:33:57;;;;;;;12.35;2.67;;;20.80;97.80;;;;;;5112709;28;20046;-69
2022/06/26 01:37:01;;;;;;;13.60;3.05;;;20.80;97.80;;;;;;5111303;28;20043;-68
2022/06/26 01:40:07;;;;;;;8.32;3.30;;;20.80;98.00;;;;;;5112409;28;20050;-69
2022/06/26 01:43:20;;;;;;;10.15;2.70;;;20.90;98.80;;;;;;5111658;28;20545;-69
2022/06/26 01:46:25;;;;;;;15.90;4.15;;;20.90;99.20;;;;;;5099773;28;20047;-68
2022/06/26 01:49:30;;;;;;;13.93;3.22;;;20.90;99.70;;;;;;5111934;28;20050;-69
2022/06/26 01:52:33;;;;;;;14.60;3.45;;;20.80;99.90;;;;;;5111426;28;20054;-69
2022/06/26 01:55:39;;;;;;;12.63;3.40;;;20.80;99.90;;;;;;5111815;28;20071;-69
2022/06/26 01:58:46;;;;;;;6.93;2.78;;;20.70;99.90;;;;;;5111334;28;20050;-68
2022/06/26 02:02:12;;;;;;;11.50;3.10;;;20.70;99.90;;;;;;5111491;28;20040;-69
2022/06/26 02:05:16;;;;;;;9.55;2.83;;;20.70;99.90;;;;;;5111238;28;20042;-68
2022/06/26 02:08:20;;;;;;;13.27;3.28;;;20.70;99.90;;;;;;5110620;28;20043;-68
2022/06/26 02:15:07;;;;;;;11.10;3.35;;;20.70;99.90;;;;;;5048846;28;20040;-68
2022/06/26 02:18:12;;;;;;;15.35;3.75;;;20.70;99.90;;;;;;5047997;28;20060;-69
2022/06/26 02:21:19;;;;;;;12.27;3.13;;;20.60;99.90;;;;;;5110808;28;20039;-69
2022/06/26 02:24:22;;;;;;;13.82;3.72;;;20.60;99.90;;;;;;5110919;28;20039;-68
2022/06/26 02:27:26;;;;;;;11.38;3.05;;;20.60;99.90;;;;;;5110209;28;20038;-69
2022/06/26 02:30:31;;;;;;;13.80;3.40;;;20.60;99.90;;;;;;5111774;28;21386;-68
2022/06/26 02:33:36;;;;;;;14.10;3.95;;;20.60;99.90;;;;;;5110823;28;20038;-69
2022/06/26 02:36:40;;;;;;;9.60;3.38;;;20.60;99.90;;;;;;5111242;28;20066;-68
2022/06/26 02:39:45;;;;;;;13.88;3.58;;;20.60;99.90;;;;;;5110971;28;20417;-69
2022/06/26 02:42:49;;;;;;;12.95;3.35;;;20.50;99.90;;;;;;5110749;28;20050;-68
2022/06/26 02:45:55;;;;;;;10.90;3.05;;;20.50;99.90;;;;;;5111250;28;20050;-68
2022/06/26 02:49:00;;;;;;;11.02;3.28;;;20.40;99.90;;;;;;5110739;28;20063;-69
2022/06/26 02:52:04;;;;;;;12.60;3.78;;;20.40;99.90;;;;;;5111392;28;20066;-68
2022/06/26 02:55:08;;;;;;;6.72;2.92;;;20.30;99.90;;;;;;5110421;28;20496;-69
2022/06/26 02:58:16;;;;;;;17.23;3.33;;;20.20;99.90;;;;;;5109996;28;20047;-69
2022/06/26 03:01:32;;;;;;;14.25;2.95;;;20.20;99.90;;;;;;5110173;28;20050;-69
2022/06/26 03:04:54;;;;;;;16.65;3.83;;;20.20;99.90;;;;;;5109885;28;20047;-68
2022/06/26 03:07:59;;;;;;;12.45;3.85;;;20.10;99.90;;;;;;5110313;28;20039;-69
2022/06/26 03:11:03;;;;;;;7.85;3.13;;;20.10;99.90;;;;;;5110002;28;20046;-69
2022/06/26 03:14:08;;;;;;;13.25;3.20;;;20.10;99.90;;;;;;5109827;28;20058;-69
2022/06/26 03:17:13;;;;;;;17.08;4.05;;;20.10;99.90;;;;;;5109550;28;20051;-68
2022/06/26 03:20:19;;;;;;;11.68;3.42;;;20.00;99.90;;;;;;5109977;28;20054;-68
2022/06/26 03:24:00;;;;;;;12.38;3.33;;;19.90;99.90;;;;;;5109538;28;20311;-68
2022/06/26 03:26:47;;;;;;;12.05;3.70;;;19.90;99.90;;;;;;5109136;28;20058;-68
2022/06/26 03:29:52;;;;;;;12.98;3.92;;;19.80;99.90;;;;;;5109732;28;20389;-69
2022/06/26 03:32:56;;;;;;;22.88;3.80;;;19.80;99.90;;;;;;5110085;28;20039;-69
2022/06/26 03:36:00;;;;;;;16.25;3.97;;;19.70;99.90;;;;;;5109411;28;20019;-69
2022/06/26 03:39:04;;;;;;;14.30;4.10;;;19.60;99.90;;;;;;5110669;28;20071;-69
2022/06/26 03:42:12;;;;;;;9.15;3.40;;;19.50;99.90;;;;;;5109690;28;20042;-68
2022/06/26 03:45:17;;;;;;;9.02;3.72;;;19.50;99.90;;;;;;5109639;28;20393;-68
2022/06/26 03:48:21;;;;;;;13.82;3.88;;;19.50;99.90;;;;;;5109770;28;20042;-69
2022/06/26 03:51:31;;;;;;;12.02;3.50;;;19.50;99.90;;;;;;5109658;28;20504;-68
2022/06/26 03:54:35;;;;;;;12.15;3.53;;;19.50;99.90;;;;;;5109645;28;20047;-68
2022/06/26 03:57:39;;;;;;;9.95;4.28;;;19.60;99.90;;;;;;5108590;28;20400;-69
2022/06/26 04:00:45;;;;;;;17.40;4.07;;;19.70;99.90;;;;;;5109739;28;20035;-69
2022/06/26 04:03:49;;;;;;;14.02;4.70;;;19.70;99.90;;;;;;5109226;28;20051;-69
2022/06/26 04:06:54;;;;;;;12.85;3.55;;;19.70;99.90;;;;;;5097216;28;20125;-68
2022/06/26 04:10:06;;;;;;;;;;;19.80;99.90;;;;;;5110019;28;20062;-68
2022/06/26 04:13:12;;;;;;;14.25;4.32;;;19.80;99.90;;;;;;5109663;28;19915;-68
2022/06/26 04:16:19;;;;;;;13.88;4.00;;;19.90;99.90;;;;;;5097608;28;20035;-68
2022/06/26 04:19:25;;;;;;;14.70;4.75;;;19.90;99.90;;;;;;5109321;28;20051;-68
2022/06/26 04:22:29;;;;;;;9.65;3.90;;;20.00;99.90;;;;;;5109436;28;20038;-68
2022/06/26 04:25:35;;;;;;;11.20;4.32;;;20.10;99.90;;;;;;5109346;28;20036;-68
2022/06/26 04:28:39;;;;;;;13.65;4.35;;;20.10;99.90;;;;;;5108854;28;20397;-68
2022/06/26 04:31:44;;;;;;;11.70;3.55;;;20.50;99.90;;;;;;5107726;28;20031;-69
2022/06/26 04:34:48;;;;;;;16.35;4.47;;;21.60;99.90;;;;;;5112592;28;20051;-69
2022/06/26 04:37:52;;;;;;;11.65;3.75;;;22.70;99.90;;;;;;5112524;28;20054;-69
2022/06/26 04:40:58;;;;;;;12.15;3.75;;;24.00;99.90;;;;;;5111896;28;20078;-68
2022/06/26 04:44:10;;;;;;;5.78;2.90;;;25.10;99.90;;;;;;5113067;28;20038;-68
2022/06/26 04:47:14;;;;;;;9.40;3.03;;;26.30;99.90;;;;;;5112380;28;20058;-68
2022/06/26 04:50:44;;;;;;;8.85;3.65;;;27.00;99.90;;;;;;5112984;28;20391;-68
2022/06/26 04:53:52;;;;;;;10.07;3.67;;;28.00;99.70;;;;;;5112631;28;20031;-68
2022/06/26 04:56:56;;;;;;;12.68;3.10;;;29.10;97.90;;;;;;5112364;28;20054;-68
2022/06/26 05:00:00;;;;;;;11.55;3.05;;;30.00;96.00;;;;;;5113719;28;20054;-69
2022/06/26 05:03:06;;;;;;;10.38;2.83;;;30.90;94.70;;;;;;5112538;28;20509;-69
2022/06/26 05:06:28;;;;;;;10.20;2.95;;;31.00;93.50;;;;;;5112879;28;20050;-69
2022/06/26 05:09:49;;;;;;;10.13;3.15;;;30.70;93.20;;;;;;5112187;28;20390;-69
2022/06/26 05:12:53;;;;;;;9.00;2.85;;;30.30;93.30;;;;;;5112268;28;20043;-68
2022/06/26 05:16:12;;;;;;;13.13;2.85;;;30.40;93.20;;;;;;5111795;28;20042;-69
2022/06/26 05:19:16;;;;;;;10.80;2.92;;;30.80;92.50;;;;;;5113120;28;20039;-68
2022/06/26 05:22:21;;;;;;;13.07;3.30;;;31.00;92.20;;;;;;5112035;28;20038;-70
2022/06/26 05:25:25;;;;;;;11.75;3.47;;;29.80;92.90;;;;;;5112287;28;20046;-69
2022/06/26 05:28:29;;;;;;;8.63;3.33;;;29.40;93.70;;;;;;5111578;28;20046;-69
2022/06/26 05:31:34;;;;;;;12.32;3.00;;;28.80;94.00;;;;;;5111176;28;20503;-69
2022/06/26 05:34:38;;;;;;;13.90;3.45;;;29.90;93.10;;;;;;5111672;28;20389;-68
2022/06/26 05:37:42;;;;;;;12.23;3.42;;;30.00;92.60;;;;;;5111517;28;20042;-69
2022/06/26 05:40:46;;;;;;;7.93;2.85;;;30.80;91.90;;;;;;5111995;28;20058;-69
2022/06/26 05:43:53;;;;;;;10.48;2.90;;;31.50;91.10;;;;;;5111564;28;20043;-69
2022/06/26 05:47:00;;;;;;;13.98;3.10;;;31.40;91.20;;;;;;5111270;28;20385;-69
2022/06/26 05:50:21;;;;;;;11.05;2.92;;;31.40;91.30;;;;;;5112105;28;20051;-69
2022/06/26 05:53:46;;;;;;;5.63;2.65;;;31.40;90.80;;;;;;5111564;28;20046;-69
2022/06/26 05:57:23;;;;;;;12.50;2.97;;;31.10;90.70;;;;;;5112069;28;20385;-68
2022/06/26 06:00:46;;;;;;;11.05;2.88;;;29.60;91.50;;;;;;5112173;28;20409;-68
2022/06/26 06:03:50;;;;;;;12.20;2.78;;;29.60;91.70;;;;;;5111500;28;20393;-69
2022/06/26 06:06:56;;;;;;;11.52;3.28;;;30.20;91.40;;;;;;5098884;28;20039;-69
2022/06/26 06:10:00;;;;;;;13.88;3.53;;;28.50;92.10;;;;;;5111315;28;20043;-69
2022/06/26 06:13:07;;;;;;;12.98;3.30;;;28.20;92.40;;;;;;5111011;28;20047;-69
2022/06/26 06:16:11;;;;;;;13.52;3.13;;;28.70;92.80;;;;;;5110503;28;20042;-69
2022/06/26 06:19:15;;;;;;;7.70;2.45;;;29.20;92.30;;;;;;5110959;28;20050;-69
2022/06/26 06:22:22;;;;;;;9.15;2.65;;;30.10;91.50;;;;;;5110804;28;20043;-69
2022/06/26 06:25:28;;;;;;;11.98;2.80;;;29.60;91.60;;;;;;5110911;28;20046;-69
2022/06/26 06:28:32;;;;;;;12.20;3.65;;;30.60;91.40;;;;;;5111772;28;20051;-70
2022/06/26 06:31:35;;;;;;;14.30;2.70;;;31.30;90.60;;;;;;5109941;28;20058;-69
2022/06/26 06:34:41;;;;;;;8.50;2.75;;;31.80;90.20;;;;;;5110459;28;20038;-69
2022/06/26 06:37:45;;;;;;;9.77;2.70;;;32.70;89.40;;;;;;5110086;28;20048;-69
2022/06/26 06:40:49;;;;;;;6.22;2.28;;;32.10;88.30;;;;;;5098470;28;20660;-69
2022/06/26 06:43:59;;;;;;;12.33;2.90;;;31.90;88.90;;;;;;5110625;28;20035;-70
2022/06/26 06:47:23;;;;;;;14.38;3.40;;;31.00;88.30;;;;;;5110719;28;20312;-69
2022/06/26 06:50:56;;;;;;;11.82;2.78;;;31.10;88.20;;;;;;5064007;28;20039;-69
2022/06/26 06:54:01;;;;;;;7.70;2.58;;;31.90;87.70;;;;;;5110358;28;20039;-68
2022/06/26 06:57:07;;;;;;;8.50;2.33;;;32.10;87.00;;;;;;5109147;28;20048;-69
2022/06/26 07:00:11;;;;;;;9.48;2.60;;;33.30;85.20;;;;;;5109951;28;20044;-69
2022/06/26 07:03:16;;;;;;;12.82;2.67;;;34.40;83.30;;;;;;5111178;28;20035;-69
2022/06/26 07:06:21;;;;;;;9.18;2.30;;;34.70;82.10;;;;;;5110738;28;20031;-70
2022/06/26 07:09:24;;;;;;;7.15;2.47;;;33.80;82.40;;;;;;5086705;28;20050;-69
2022/06/26 07:12:29;;;;;;;12.05;2.90;;;33.80;83.50;;;;;;5110204;28;20047;-70
2022/06/26 07:15:34;;;;;;;10.95;2.20;;;34.20;81.70;;;;;;5109676;28;20043;-69
2022/06/26 07:18:41;;;;;;;14.50;2.40;;;32.10;84.10;;;;;;5109775;28;20050;-69
2022/06/26 07:21:45;;;;;;;8.40;2.60;;;30.80;88.00;;;;;;5110184;28;20496;-70
2022/06/26 07:24:50;;;;;;;13.20;2.83;;;32.40;86.60;;;;;;5110078;28;20043;-70
2022/06/26 07:28:13;;;;;;;9.75;2.78;;;33.50;85.50;;;;;;5109418;28;20051;-69
2022/06/26 07:31:17;;;;;;;7.50;2.33;;;32.20;85.40;;;;;;5109613;28;20500;-69
2022/06/26 07:34:23;;;;;;;11.70;3.08;;;33.30;85.10;;;;;;5109823;28;20039;-69
2022/06/26 07:37:27;;;;;;;9.20;2.50;;;32.90;85.10;;;;;;5109914;28;20499;-69
2022/06/26 07:40:32;;;;;;;10.55;2.83;;;34.80;83.30;;;;;;5109814;28;20046;-70
2022/06/26 07:43:39;;;;;;;10.77;2.67;;;34.20;82.40;;;;;;5109920;28;20051;-70
2022/06/26 07:46:44;;;;;;;12.57;2.88;;;35.60;82.30;;;;;;5108931;28;20110;-69
2022/06/26 07:49:52;;;;;;;9.68;3.17;;;35.40;81.90;;;;;;5109884;28;20389;-70
2022/06/26 07:52:56;;;;;;;9.88;2.85;;;34.60;81.40;;;;;;5110687;28;20055;-69
2022/06/26 07:56:02;;;;;;;9.63;2.92;;;35.00;82.40;;;;;;5110241;28;20493;-70
2022/06/26 07:59:06;;;;;;;15.75;2.88;;;35.90;80.90;;;;;;5109589;28;20059;-70
2022/06/26 08:02:10;;;;;;;10.48;2.50;;;35.90;80.50;;;;;;5110522;28;20062;-70
2022/06/26 08:05:14;;;;;;;12.60;2.75;;;36.20;81.10;;;;;;5110494;28;20053;-69
2022/06/26 08:08:18;;;;;;;12.93;2.53;;;36.60;80.10;;;;;;5110959;28;20046;-69
2022/06/26 08:11:22;;;;;;;11.27;2.78;;;37.20;79.00;;;;;;5114799;28;20051;-70
2022/06/26 08:14:26;;;;;;;13.93;2.75;;;38.30;77.30;;;;;;5114521;28;20050;-69
2022/06/26 08:17:30;;;;;;;9.50;2.38;;;38.60;77.00;;;;;;5113505;28;20485;-71
2022/06/26 08:20:35;;;;;;;11.80;2.90;;;38.30;75.50;;;;;;5113901;28;20043;-70
2022/06/26 08:23:39;;;;;;;8.90;2.45;;;34.90;78.60;;;;;;5114788;28;20173;-68
2022/06/26 08:26:43;;;;;;;9.05;3.28;;;36.90;79.00;;;;;;5113577;28;20047;-67
2022/06/26 08:29:47;;;;;;;9.65;2.55;;;39.70;75.80;;;;;;5114317;28;20047;-67
2022/06/26 08:32:51;;;;;;;9.38;2.60;;;41.50;72.90;;;;;;5113305;28;20035;-69
2022/06/26 08:35:55;;;;;;;9.02;2.55;;;41.70;72.20;;;;;;5113297;28;20047;-70
2022/06/26 08:38:59;;;;;;;10.68;2.72;;;42.30;70.70;;;;;;5113045;28;20043;-67
2022/06/26 08:42:04;;;;;;;8.77;2.42;;;42.90;69.90;;;;;;5114099;28;20050;-66
2022/06/26 08:45:08;;;;;;;8.50;2.47;;;42.90;69.70;;;;;;5112900;28;20039;-67
2022/06/26 08:48:15;;;;;;;6.72;2.13;;;43.60;69.30;;;;;;5113384;28;20055;-67
2022/06/26 08:51:20;;;;;;;11.02;2.50;;;44.00;68.60;;;;;;5114151;28;20051;-67
2022/06/26 08:54:27;;;;;;;7.28;2.75;;;44.20;68.00;;;;;;5114100;28;20043;-68
2022/06/26 08:57:33;;;;;;;7.53;2.38;;;42.20;69.50;;;;;;5113134;28;20055;-67
2022/06/26 09:00:37;;;;;;;9.57;2.50;;;43.40;69.20;;;;;;5112636;28;20035;-69
2022/06/26 09:03:41;;;;;;;12.55;3.13;;;41.90;69.10;;;;;;5113805;28;20345;-69
2022/06/26 09:06:45;;;;;;;8.27;2.15;;;38.50;71.20;;;;;;5112166;28;20413;-69
2022/06/26 09:09:49;;;;;;;8.68;2.55;;;40.40;70.90;;;;;;5113288;28;20039;-69
2022/06/26 09:12:55;;;;;;;20.48;2.88;;;42.10;69.70;;;;;;5113304;28;20397;-69
2022/06/26 09:15:59;;;;;;;8.13;2.55;;;41.40;70.00;;;;;;5113416;28;20054;-68
2022/06/26 09:19:12;;;;;;;10.85;2.58;;;43.00;68.90;;;;;;5112595;28;20133;-69
2022/06/26 09:22:17;;;;;;;11.32;2.35;;;42.60;68.20;;;;;;5113093;28;20050;-70
2022/06/26 09:25:33;;;;;;;14.07;2.65;;;44.30;67.10;;;;;;5113090;28;20050;-69
2022/06/26 09:28:37;;;;;;;8.10;2.70;;;46.00;64.70;;;;;;5111403;28;20046;-69
2022/06/26 09:31:43;;;;;;;9.27;2.80;;;47.00;64.70;;;;;;5094298;28;20036;-69
2022/06/26 09:34:50;;;;;;;8.77;2.50;;;48.10;62.10;;;;;;5110713;28;20044;-69
2022/06/26 09:37:58;;;;;;;9.88;2.05;;;45.50;62.90;;;;;;5101036;28;20055;-69
2022/06/26 09:41:07;;;;;;;8.45;2.10;;;45.80;63.00;;;;;;5111940;28;20043;-69
2022/06/26 09:44:18;;;;;;;10.07;2.30;;;46.10;62.90;;;;;;5111615;28;20043;-68
2022/06/26 09:47:35;;;;;;;14.05;2.65;;;45.70;63.90;;;;;;5112278;28;20035;-70
2022/06/26 09:50:40;;;;;;;9.88;2.83;;;44.80;63.60;;;;;;5112826;28;20031;-68
2022/06/26 09:53:45;;;;;;;11.73;2.40;;;46.10;61.90;;;;;;5113024;28;20035;-68
2022/06/26 09:56:49;;;;;;;12.32;2.83;;;47.20;62.00;;;;;;5112149;28;20047;-68
2022/06/26 09:59:56;;;;;;;14.30;3.38;;;44.60;63.00;;;;;;5112455;28;20066;-68
2022/06/26 10:06:28;;;;;;;10.45;2.40;;;45.40;62.50;;;;;;5111535;28;20496;-69
2022/06/26 10:09:34;;;;;;;23.63;3.20;;;45.80;61.20;;;;;;5112434;28;20050;-68
2022/06/26 10:12:39;;;;;;;11.30;2.25;;;44.20;59.20;;;;;;5112437;28;20118;-68
2022/06/26 10:15:56;;;;;;;11.23;2.60;;;44.30;61.50;;;;;;5112203;28;20509;-68
2022/06/26 10:19:34;;;;;;;12.27;2.40;;;41.50;61.80;;;;;;5112059;28;20055;-68
2022/06/26 10:22:40;;;;;;;9.82;2.50;;;41.40;61.30;;;;;;5111838;28;20039;-68
2022/06/26 10:25:45;;;;;;;10.40;2.22;;;43.20;60.20;;;;;;5110827;28;20394;-68
2022/06/26 10:28:55;;;;;;;12.50;2.47;;;45.40;58.60;;;;;;5111762;28;20046;-68
2022/06/26 10:32:00;;;;;;;10.63;2.45;;;46.50;57.60;;;;;;5110196;28;20046;-69
2022/06/26 10:35:05;;;;;;;14.02;2.72;;;45.20;58.40;;;;;;5111866;28;20386;-69
2022/06/26 10:38:20;;;;;;;15.50;2.75;;;42.40;60.30;;;;;;5109970;28;20047;-69
2022/06/26 10:44:55;;;;;;;13.63;2.60;;;42.70;60.90;;;;;;5111621;28;20046;-68
2022/06/26 10:48:02;;;;;;;16.35;3.83;;;40.90;61.10;;;;;;5110794;28;20043;-67
2022/06/26 10:51:06;;;;;;;15.48;2.53;;;40.60;63.10;;;;;;5111298;28;20054;-69
2022/06/26 10:54:22;;;;;;;14.00;2.97;;;40.50;62.20;;;;;;5111238;28;20050;-69
2022/06/26 10:57:37;;;;;;;17.33;2.88;;;40.80;61.00;;;;;;5109158;28;20051;-68
2022/06/26 11:00:43;;;;;;;13.90;2.83;;;40.20;61.40;;;;;;5110279;28;20066;-70
2022/06/26 11:03:47;;;;;;;17.42;3.15;;;40.00;63.00;;;;;;5111095;28;20042;-68
2022/06/26 11:06:51;;;;;;;13.82;3.05;;;40.20;62.20;;;;;;5110757;28;20047;-68
2022/06/26 11:09:56;;;;;;;12.40;2.75;;;39.30;63.20;;;;;;5110887;28;20046;-69
2022/06/26 11:13:00;;;;;;;12.27;2.97;;;41.40;63.40;;;;;;5110774;28;20046;-69
2022/06/26 11:16:05;;;;;;;14.75;2.70;;;41.00;62.20;;;;;;5110833;28;20047;-69
2022/06/26 11:19:27;;;;;;;16.90;3.30;;;42.00;60.00;;;;;;5110593;28;20501;-69
2022/06/26 11:22:32;;;;;;;11.52;2.70;;;40.00;61.60;;;;;;5110628;28;20531;-69
2022/06/26 11:25:41;;;;;;;12.07;2.60;;;40.80;61.40;;;;;;5110765;28;20042;-68
2022/06/26 11:28:45;;;;;;;13.40;2.67;;;40.10;61.10;;;;;;5110066;28;20043;-69
2022/06/26 11:31:49;;;;;;;11.35;2.78;;;41.40;59.80;;;;;;5109865;28;20401;-69
2022/06/26 11:34:55;;;;;;;18.88;4.03;;;41.50;60.50;;;;;;5111018;28;20603;-69
2022/06/26 11:38:14;;;;;;;16.30;2.50;;;39.70;60.50;;;;;;5109997;28;20046;-70
2022/06/26 11:41:22;;;;;;;11.43;2.72;;;39.60;60.60;;;;;;5110788;28;20039;-68
2022/06/26 11:44:26;;;;;;;17.23;3.20;;;39.30;60.80;;;;;;5110803;28;20047;-69
2022/06/26 11:47:34;;;;;;;12.43;2.90;;;40.40;60.50;;;;;;5109377;28;20043;-68
2022/06/26 11:50:39;;;;;;;13.40;2.92;;;40.40;61.40;;;;;;5110808;28;20053;-68
2022/06/26 11:53:46;;;;;;;15.55;3.53;;;40.20;60.90;;;;;;5110871;28;20039;-68
2022/06/26 11:56:50;;;;;;;15.60;3.17;;;39.50;60.80;;;;;;5110238;28;20066;-68
2022/06/26 11:59:54;;;;;;;14.63;2.60;;;39.30;61.60;;;;;;5110499;28;20378;-68
2022/06/26 12:03:02;;;;;;;17.33;3.05;;;38.90;61.00;;;;;;5110870;28;20051;-70
2022/06/26 12:06:06;;;;;;;18.48;3.47;;;36.30;64.00;;;;;;5109578;28;20054;-69
2022/06/26 12:09:26;;;;;;;13.05;3.63;;;37.40;63.30;;;;;;5109698;28;20047;-70
2022/06/26 12:12:30;;;;;;;14.18;3.05;;;38.90;62.70;;;;;;5110574;28;20042;-71
2022/06/26 12:15:37;;;;;;;16.33;3.10;;;40.20;61.40;;;;;;5110736;28;20046;-70
2022/06/26 12:18:42;;;;;;;14.48;3.83;;;40.50;62.10;;;;;;5109822;28;20042;-68
2022/06/26 12:21:48;;;;;;;13.88;3.17;;;39.60;61.90;;;;;;5110415;28;20046;-69
2022/06/26 12:24:54;;;;;;;14.00;2.50;;;39.80;61.40;;;;;;5110128;28;20046;-70
2022/06/26 12:27:59;;;;;;;12.65;2.75;;;40.00;61.60;;;;;;5108914;28;20105;-68
2022/06/26 12:31:03;;;;;;;14.57;2.75;;;39.20;62.10;;;;;;5108983;28;20039;-68
2022/06/26 12:34:08;;;;;;;14.15;2.72;;;38.40;64.10;;;;;;5109622;28;20054;-68
2022/06/26 12:37:11;;;;;;;14.23;3.58;;;38.40;64.40;;;;;;5108958;28;20047;-69
2022/06/26 12:40:16;;;;;;;11.93;3.50;;;38.20;65.00;;;;;;5109818;28;20047;-68
2022/06/26 12:43:19;;;;;;;13.10;2.95;;;38.30;63.60;;;;;;5109885;28;20046;-70
2022/06/26 12:46:25;;;;;;;18.20;3.83;;;38.00;63.90;;;;;;5109815;28;20042;-70
2022/06/26 12:49:29;;;;;;;17.33;3.40;;;37.50;64.10;;;;;;5109898;28;20050;-69
2022/06/26 12:52:33;;;;;;;11.98;3.03;;;37.40;65.00;;;;;;5110238;28;20051;-68
2022/06/26 12:55:38;;;;;;;16.13;3.35;;;38.30;64.10;;;;;;5113128;28;20043;-69
2022/06/26 12:58:42;;;;;;;14.63;2.70;;;38.90;63.30;;;;;;5113755;28;20059;-70
2022/06/26 13:01:46;;;;;;;16.35;3.60;;;40.10;62.30;;;;;;5113608;28;20381;-69
2022/06/26 13:04:51;;;;;;;14.48;3.55;;;38.80;63.50;;;;;;5113730;28;20034;-70
2022/06/26 13:07:55;;;;;;;17.67;3.72;;;38.60;64.00;;;;;;5112065;28;20043;-69
2022/06/26 13:14:39;;;;;;;17.25;3.40;;;38.30;64.30;;;;;;5072315;28;20362;-69
2022/06/26 13:17:44;;;;;;;14.85;3.42;;;38.00;64.40;;;;;;5112850;28;20039;-68
2022/06/26 13:20:48;;;;;;;13.30;3.13;;;37.70;64.90;;;;;;5113311;28;20051;-68
2022/06/26 13:23:52;;;;;;;17.52;3.22;;;37.40;66.10;;;;;;5113685;28;20055;-69
2022/06/26 13:26:56;;;;;;;16.65;3.53;;;37.10;65.90;;;;;;5112476;28;20039;-68
2022/06/26 13:30:00;;;;;;;16.27;3.72;;;37.20;65.80;;;;;;5112826;28;20050;-70
2022/06/26 13:33:05;;;;;;;16.33;3.03;;;36.80;65.60;;;;;;5113311;28;20394;-67
2022/06/26 13:36:09;;;;;;;15.30;3.00;;;36.90;66.00;;;;;;5112429;28;20038;-68
2022/06/26 13:39:13;;;;;;;15.05;3.30;;;37.60;65.20;;;;;;5112910;28;20050;-68
2022/06/26 13:42:17;;;;;;;18.42;3.30;;;38.50;64.60;;;;;;5113259;28;20488;-69
2022/06/26 13:45:21;;;;;;;18.25;2.97;;;38.50;64.90;;;;;;5113190;28;20481;-69
2022/06/26 13:48:25;;;;;;;19.23;3.78;;;38.00;64.20;;;;;;5112578;28;20031;-69
2022/06/26 13:51:31;;;;;;;12.43;3.42;;;37.60;65.20;;;;;;5113000;28;20042;-68
2022/06/26 13:54:34;;;;;;;15.27;3.13;;;37.10;65.00;;;;;;5111846;28;20046;-69
2022/06/26 13:57:38;;;;;;;13.73;3.80;;;36.50;65.70;;;;;;5110976;28;20394;-68
2022/06/26 14:00:42;;;;;;;14.93;3.42;;;36.80;66.50;;;;;;5112811;28;20509;-68
2022/06/26 14:03:48;;;;;;;17.42;3.05;;;36.40;66.00;;;;;;5111530;28;20046;-68
2022/06/26 14:06:52;;;;;;;23.08;3.65;;;36.80;65.50;;;;;;5112310;28;20042;-68
2022/06/26 14:09:56;;;;;;;19.73;3.80;;;37.20;65.20;;;;;;5112521;28;20054;-69
2022/06/26 14:13:00;;;;;;;14.82;3.50;;;37.10;65.80;;;;;;5112562;28;20051;-68
2022/06/26 14:16:05;;;;;;;16.60;3.50;;;37.10;65.70;;;;;;5111631;28;20276;-70
2022/06/26 14:19:09;;;;;;;18.63;3.72;;;36.30;65.90;;;;;;5112054;28;20047;-70
2022/06/26 14:28:58;;;;;;;19.02;3.75;;;37.40;64.80;;;;;;5111628;28;20051;-69
2022/06/26 14:32:02;;;;;;;16.58;3.72;;;38.00;64.40;;;;;;5111654;28;20046;-70
2022/06/26 14:35:07;;;;;;;16.55;3.97;;;37.10;64.80;;;;;;5111997;28;20055;-70
2022/06/26 14:38:11;;;;;;;17.20;3.40;;;36.30;64.60;;;;;;5098876;28;20370;-70
2022/06/26 14:41:16;;;;;;;12.80;2.90;;;36.70;65.60;;;;;;5111760;28;20043;-69
2022/06/26 14:44:20;;;;;;;27.33;3.38;;;36.40;65.20;;;;;;5111709;28;20043;-71
2022/06/26 14:47:24;;;;;;;19.10;3.40;;;36.60;65.30;;;;;;5099137;28;20042;-70
2022/06/26 14:50:28;;;;;;;13.40;2.85;;;36.60;65.90;;;;;;5111719;28;20049;-70
2022/06/26 14:53:32;;;;;;;14.15;3.28;;;36.50;66.20;;;;;;5111462;28;20480;-71
2022/06/26 14:56:36;;;;;;;10.98;2.83;;;36.70;66.90;;;;;;5110972;28;20054;-70
2022/06/26 14:59:40;;;;;;;17.05;3.15;;;36.90;65.80;;;;;;5111338;28;20046;-69
2022/06/26 15:02:44;;;;;;;18.73;3.38;;;36.10;67.20;;;;;;5111373;28;20046;-70
2022/06/26 15:05:49;;;;;;;24.08;3.92;;;36.30;67.60;;;;;;5111731;28;20047;-69
2022/06/26 15:08:53;;;;;;;16.40;3.38;;;36.20;67.20;;;;;;5111262;28;20046;-70
2022/06/26 15:11:57;;;;;;;16.08;3.13;;;36.30;66.90;;;;;;5111507;28;20058;-70
2022/06/26 15:15:01;;;;;;;15.15;3.55;;;36.20;67.60;;;;;;5110703;28;20493;-69
2022/06/26 15:18:05;;;;;;;17.98;3.92;;;36.50;67.20;;;;;;5109594;28;20050;-70
2022/06/26 15:21:09;;;;;;;11.93;2.72;;;36.60;66.10;;;;;;5110847;28;20386;-70
2022/06/26 15:24:13;;;;;;;20.35;4.07;;;36.70;66.60;;;;;;5111365;28;20046;-70
2022/06/26 15:27:17;;;;;;;17.60;4.00;;;36.70;67.10;;;;;;5110549;28;20043;-69
2022/06/26 15:30:21;;;;;;;19.05;3.05;;;36.70;67.40;;;;;;5110388;28;20043;-69
2022/06/26 15:33:25;;;;;;;15.55;3.75;;;36.90;66.70;;;;;;5110972;28;20059;-69
2022/06/26 15:36:29;;;;;;;13.38;3.10;;;36.80;67.00;;;;;;5110563;28;20062;-69
2022/06/26 15:39:33;;;;;;;16.27;3.28;;;36.70;67.60;;;;;;5110527;28;20038;-70
2022/06/26 15:42:37;;;;;;;13.30;3.95;;;36.50;67.40;;;;;;5110901;28;20047;-70
2022/06/26 15:45:41;;;;;;;15.50;3.03;;;36.60;67.00;;;;;;5110952;28;20047;-70
2022/06/26 15:48:45;;;;;;;20.65;3.63;;;36.60;66.90;;;;;;5110639;28;20039;-70
2022/06/26 15:51:49;;;;;;;11.70;2.80;;;36.60;66.30;;;;;;5110554;28;20440;-69
2022/06/26 15:54:53;;;;;;;10.73;2.88;;;36.40;66.80;;;;;;5110774;28;20043;-69
2022/06/26 15:57:57;;;;;;;11.65;3.10;;;35.80;68.00;;;;;;5110309;28;20046;-70
2022/06/26 16:01:02;;;;;;;26.08;3.42;;;35.60;68.30;;;;;;5110460;28;20054;-71
2022/06/26 16:04:06;;;;;;;11.35;3.28;;;35.50;67.80;;;;;;5110466;28;20043;-70
2022/06/26 16:07:10;;;;;;;17.65;3.33;;;35.30;68.20;;;;;;5110185;28;20042;-70
2022/06/26 16:10:15;;;;;;;15.60;3.05;;;35.30;68.70;;;;;;5110281;28;20394;-70
2022/06/26 16:13:19;;;;;;;20.35;3.30;;;35.10;68.60;;;;;;5110226;28;20521;-70
2022/06/26 16:16:23;;;;;;;16.17;3.67;;;35.00;69.50;;;;;;5110075;28;20117;-69
2022/06/26 16:19:27;;;;;;;16.00;3.80;;;35.00;70.20;;;;;;5109118;28;20051;-70
2022/06/26 16:29:16;;;;;;;15.80;2.70;;;34.80;69.80;;;;;;5111292;28;20039;-69